createdAt,value
2022-09-20T00:02:00.936Z,10.43
2022-09-20T00:04:30.917Z,9.32
2022-09-20T00:07:00.877Z,9.27
2022-09-20T00:09:30.888Z,9.65
2022-09-20T00:12:01.061Z,9.27
2022-09-20T00:14:31.062Z,9.00
2022-09-20T00:17:01.362Z,9.38
2022-09-20T00:19:31.447Z,10.88
2022-09-20T00:22:01.530Z,7.90
2022-09-20T00:24:31.521Z,8.48
2022-09-20T00:27:01.533Z,8.38
2022-09-20T00:29:31.577Z,8.70
2022-09-20T00:32:01.587Z,7.32
2022-09-20T00:34:49.958Z,7.10
2022-09-20T00:37:19.996Z,6.43
2022-09-20T00:39:49.974Z,6.85
2022-09-20T00:42:19.952Z,7.00
2022-09-20T00:44:52.749Z,6.03
2022-09-20T00:47:28.008Z,7.55
2022-09-20T00:50:02.531Z,6.22
2022-09-20T00:52:32.549Z,7.65
2022-09-20T00:55:02.534Z,7.95
2022-09-20T00:57:36.452Z,7.47
2022-09-20T01:00:10.492Z,7.25
2022-09-20T01:02:42.549Z,7.38
2022-09-20T01:05:12.668Z,7.10
2022-09-20T01:07:42.739Z,7.90
2022-09-20T01:10:12.710Z,8.40
2022-09-20T01:12:43.295Z,9.52
2022-09-20T01:15:13.741Z,8.82
2022-09-20T01:17:45.699Z,10.27
2022-09-20T01:20:21.767Z,8.75
2022-09-20T01:22:52.649Z,8.32
2022-09-20T01:25:34.694Z,7.65
2022-09-20T01:28:04.932Z,8.43
2022-09-20T01:30:54.995Z,8.98
2022-09-20T01:33:31.485Z,7.38
2022-09-20T01:36:03.277Z,5.68
2022-09-20T01:38:33.613Z,7.10
2022-09-20T01:41:09.589Z,6.38
2022-09-20T01:43:55.855Z,6.33
2022-09-20T01:46:29.157Z,6.75
2022-09-20T01:49:22.861Z,6.78
2022-09-20T01:51:58.852Z,7.47
2022-09-20T01:54:44.281Z,7.95
2022-09-20T01:57:29.373Z,8.43
2022-09-20T02:00:02.454Z,11.35
2022-09-20T02:02:37.482Z,10.80
2022-09-20T02:05:15.836Z,10.23
2022-09-20T02:08:04.408Z,8.55
2022-09-20T02:10:38.003Z,10.00
2022-09-20T02:13:27.175Z,7.90
2022-09-20T02:16:16.558Z,7.75
2022-09-20T02:18:58.619Z,11.50
2022-09-20T02:21:52.062Z,9.90
2022-09-20T02:24:32.048Z,11.05
2022-09-20T02:27:21.228Z,12.25
2022-09-20T02:29:51.260Z,9.88
2022-09-20T02:32:41.444Z,10.23
2022-09-20T02:35:11.987Z,10.57
2022-09-20T02:37:48.228Z,10.05
2022-09-20T02:40:23.405Z,7.85
2022-09-20T02:43:08.170Z,9.30
2022-09-20T02:45:46.829Z,8.27
2022-09-20T02:48:17.128Z,7.88
2022-09-20T02:50:48.357Z,6.90
2022-09-20T02:53:37.439Z,8.57
2022-09-20T02:56:13.533Z,4.47
2022-09-20T02:58:49.719Z,4.22
2022-09-20T03:01:38.556Z,5.93
2022-09-20T03:04:19.108Z,3.35
2022-09-20T03:06:52.470Z,2.40
2022-09-20T03:09:31.930Z,4.20
2022-09-20T03:12:02.383Z,6.00
2022-09-20T03:14:38.820Z,4.35
2022-09-20T03:19:51.200Z,3.80
2022-09-20T03:22:21.297Z,2.00
2022-09-20T03:25:10.128Z,2.45
2022-09-20T03:27:58.003Z,2.70
2022-09-20T03:30:42.611Z,2.72
2022-09-20T03:33:27.845Z,3.67
2022-09-20T03:36:24.238Z,7.70
2022-09-20T03:39:12.918Z,3.63
2022-09-20T03:41:43.121Z,4.47
2022-09-20T03:44:36.003Z,2.75
2022-09-20T03:47:21.756Z,1.92
2022-09-20T03:49:52.632Z,1.50
2022-09-20T03:52:36.647Z,1.60
2022-09-20T03:55:09.611Z,1.27
2022-09-20T03:57:52.709Z,0.88
2022-09-20T04:00:27.199Z,0.75
2022-09-20T04:03:03.474Z,2.00
2022-09-20T04:05:52.224Z,2.75
2022-09-20T04:08:23.160Z,1.33
2022-09-20T04:11:04.375Z,0.70
2022-09-20T04:13:39.756Z,5.07
2022-09-20T04:16:14.516Z,5.90
2022-09-20T04:18:44.757Z,1.35
2022-09-20T04:21:33.138Z,6.95
2022-09-20T04:24:05.349Z,4.80
2022-09-20T04:26:37.517Z,5.25
2022-09-20T04:29:10.904Z,3.47
2022-09-20T04:31:45.619Z,3.25
2022-09-20T04:34:18.635Z,1.88
2022-09-20T04:37:03.400Z,4.20
2022-09-20T04:39:33.769Z,4.65
2022-09-20T04:42:13.042Z,5.22
2022-09-20T04:44:55.064Z,3.80
2022-09-20T04:47:29.744Z,3.55
2022-09-20T04:50:12.294Z,4.55
2022-09-20T04:52:42.562Z,2.30
2022-09-20T04:55:18.621Z,1.67
2022-09-20T04:58:07.263Z,3.40
2022-09-20T05:01:00.680Z,4.43
2022-09-20T05:03:49.567Z,3.28
2022-09-20T05:06:31.860Z,2.95
2022-09-20T05:09:20.013Z,2.25
2022-09-20T05:11:57.867Z,1.02
2022-09-20T05:14:34.099Z,1.15
2022-09-20T05:17:22.648Z,1.52
2022-09-20T05:20:16.101Z,2.45
2022-09-20T05:22:55.687Z,3.92
2022-09-20T05:25:28.680Z,1.63
2022-09-20T05:27:59.941Z,2.60
2022-09-20T05:30:42.071Z,1.88
2022-09-20T05:33:13.579Z,1.38
2022-09-20T05:35:44.396Z,0.85
2022-09-20T05:38:17.867Z,1.10
2022-09-20T05:41:09.788Z,2.70
2022-09-20T05:43:59.871Z,1.23
2022-09-20T05:46:35.947Z,1.45
2022-09-20T05:49:14.940Z,1.00
2022-09-20T05:51:51.339Z,1.58
2022-09-20T05:56:57.126Z,1.95
2022-09-20T05:59:47.880Z,1.02
2022-09-20T06:02:36.289Z,4.47
2022-09-20T06:05:30.088Z,2.20
2022-09-20T06:08:15.411Z,0.85
2022-09-20T06:10:48.621Z,0.75
2022-09-20T06:13:36.868Z,0.60
2022-09-20T06:16:07.373Z,1.27
2022-09-20T06:19:14.013Z,2.80
2022-09-20T06:21:50.062Z,1.60
2022-09-20T06:24:32.661Z,1.77
2022-09-20T06:27:04.328Z,0.98
2022-09-20T06:29:38.264Z,1.83
2022-09-20T06:32:08.996Z,2.88
2022-09-20T06:34:39.012Z,2.50
2022-09-20T06:37:30.881Z,8.73
2022-09-20T06:40:25.326Z,9.90
2022-09-20T06:42:56.891Z,5.20
2022-09-20T06:45:26.984Z,6.50
2022-09-20T06:47:57.012Z,4.07
2022-09-20T06:50:27.090Z,5.15
2022-09-20T06:52:57.106Z,2.90
2022-09-20T06:55:29.565Z,4.32
2022-09-20T06:57:59.734Z,3.85
2022-09-20T07:00:32.550Z,4.55
2022-09-20T07:03:02.562Z,5.93
2022-09-20T07:05:32.594Z,11.32
2022-09-20T07:08:03.227Z,9.00
2022-09-20T07:10:33.335Z,5.57
2022-09-20T07:13:06.878Z,6.90
2022-09-20T07:15:37.945Z,5.85
2022-09-20T07:18:09.572Z,9.32
2022-09-20T07:20:39.933Z,10.20
2022-09-20T07:23:15.127Z,5.65
2022-09-20T07:25:45.261Z,3.33
2022-09-20T07:28:15.584Z,2.25
2022-09-20T07:30:45.876Z,4.00
2022-09-20T07:33:20.811Z,5.00
2022-09-20T07:35:51.082Z,5.78
2022-09-20T07:38:21.151Z,7.07
2022-09-20T07:41:04.199Z,5.85
2022-09-20T07:43:35.034Z,5.28
2022-09-20T07:46:05.524Z,3.25
2022-09-20T07:48:36.646Z,4.05
2022-09-20T07:51:08.939Z,2.33
2022-09-20T07:53:40.050Z,1.70
2022-09-20T07:56:14.050Z,1.45
2022-09-20T07:58:51.345Z,2.33
2022-09-20T08:01:23.377Z,2.20
2022-09-20T08:03:58.458Z,5.13
2022-09-20T08:08:58.111Z,2.20
2022-09-20T08:11:29.883Z,3.22
2022-09-20T08:14:05.352Z,4.80
2022-09-20T08:16:43.081Z,5.22
2022-09-20T08:19:20.676Z,5.88
2022-09-20T08:21:51.308Z,4.05
2022-09-20T08:24:21.824Z,2.40
2022-09-20T08:26:51.887Z,0.55
2022-09-20T08:29:22.276Z,1.25
2022-09-20T08:31:53.712Z,0.90
2022-09-20T08:34:24.515Z,1.75
2022-09-20T08:36:57.707Z,1.55
2022-09-20T08:42:39.065Z,2.25
2022-09-20T08:45:33.869Z,4.90
2022-09-20T08:48:06.796Z,2.92
2022-09-20T08:50:36.826Z,2.40
2022-09-20T08:53:07.127Z,3.80
2022-09-20T08:55:40.646Z,2.08
2022-09-20T08:58:12.026Z,3.15
2022-09-20T09:00:42.364Z,2.60
2022-09-20T09:03:18.096Z,1.80
2022-09-20T09:05:49.288Z,1.48
2022-09-20T09:08:20.209Z,1.10
2022-09-20T09:10:55.438Z,0.95
2022-09-20T09:13:44.281Z,1.30
2022-09-20T09:16:22.332Z,0.75
2022-09-20T09:18:56.405Z,1.00
2022-09-20T09:21:32.162Z,0.90
2022-09-20T09:24:06.312Z,1.35
2022-09-20T09:26:42.584Z,0.50
2022-09-20T09:31:42.817Z,1.15
2022-09-20T09:34:26.603Z,0.65
2022-09-20T09:36:57.334Z,1.88
2022-09-20T09:39:34.503Z,0.98
2022-09-20T09:42:21.362Z,1.20
2022-09-20T09:44:51.625Z,0.70
2022-09-20T09:47:39.846Z,0.65
2022-09-20T09:50:13.059Z,0.60
2022-09-20T09:52:43.028Z,0.63
2022-09-20T09:55:14.661Z,0.63
2022-09-20T09:58:05.173Z,0.80
2022-09-20T10:00:36.907Z,0.85
2022-09-20T10:03:10.321Z,1.13
2022-09-20T10:05:58.545Z,0.75
2022-09-20T10:08:48.323Z,0.82
2022-09-20T10:11:27.501Z,0.77
2022-09-20T10:14:04.608Z,1.10
2022-09-20T10:16:44.642Z,1.90
2022-09-20T10:19:33.277Z,1.17
2022-09-20T10:22:07.886Z,0.90
2022-09-20T10:25:02.065Z,1.00
2022-09-20T10:27:32.086Z,0.90
2022-09-20T10:30:15.122Z,1.05
2022-09-20T10:32:57.407Z,1.40
2022-09-20T10:35:27.524Z,0.93
2022-09-20T10:38:16.166Z,0.85
2022-09-20T10:41:08.578Z,0.90
2022-09-20T10:43:51.410Z,1.33
2022-09-20T10:46:34.259Z,1.58
2022-09-20T10:49:08.255Z,1.80
2022-09-20T10:51:46.751Z,1.58
2022-09-20T10:54:25.022Z,1.65
2022-09-20T10:56:57.548Z,1.90
2022-09-20T10:59:34.528Z,1.50
2022-09-20T11:02:04.714Z,3.15
2022-09-20T11:04:47.427Z,2.35
2022-09-20T11:07:20.646Z,1.83
2022-09-20T11:09:53.225Z,2.70
2022-09-20T11:12:50.198Z,1.42
2022-09-20T11:15:28.611Z,2.30
2022-09-20T11:18:09.130Z,2.03
2022-09-20T11:20:47.611Z,2.38
2022-09-20T11:23:19.374Z,1.92
2022-09-20T11:25:51.510Z,2.33
2022-09-20T11:28:27.622Z,2.53
2022-09-20T11:31:01.837Z,3.22
2022-09-20T11:33:36.980Z,2.72
2022-09-20T11:36:10.935Z,2.38
2022-09-20T11:38:52.871Z,2.38
2022-09-20T11:41:26.735Z,2.80
2022-09-20T11:43:58.068Z,3.38
2022-09-20T11:46:29.450Z,4.03
2022-09-20T11:49:07.149Z,4.35
2022-09-20T11:51:56.905Z,3.30
2022-09-20T11:54:34.388Z,3.90
2022-09-20T11:57:04.331Z,4.88
2022-09-20T11:59:37.834Z,4.50
2022-09-20T12:02:16.610Z,4.95
2022-09-20T12:04:47.726Z,5.03
2022-09-20T12:07:27.232Z,5.95
2022-09-20T12:10:00.193Z,4.90
2022-09-20T12:12:42.746Z,4.35
2022-09-20T12:15:31.427Z,4.10
2022-09-20T12:18:05.519Z,4.80
2022-09-20T12:23:29.399Z,3.58
2022-09-20T12:26:05.692Z,5.40
2022-09-20T12:28:45.346Z,5.57
2022-09-20T12:31:22.579Z,4.35
2022-09-20T12:34:02.415Z,5.25
2022-09-20T12:36:33.950Z,5.68
2022-09-20T12:39:08.789Z,4.70
2022-09-20T12:41:55.469Z,6.07
2022-09-20T12:44:34.675Z,5.07
2022-09-20T12:47:09.598Z,5.05
2022-09-20T12:49:58.124Z,4.68
2022-09-20T12:52:56.012Z,5.43
2022-09-20T12:55:32.765Z,4.07
2022-09-20T13:00:52.767Z,4.30
2022-09-20T13:03:28.293Z,5.38
2022-09-20T13:06:10.709Z,5.05
2022-09-20T13:08:52.595Z,5.20
2022-09-20T13:11:41.065Z,6.93
2022-09-20T13:14:23.814Z,4.97
2022-09-20T13:16:54.188Z,6.25
2022-09-20T13:19:39.118Z,6.18
2022-09-20T13:22:11.472Z,6.90
2022-09-20T13:24:43.786Z,8.57
2022-09-20T13:27:19.645Z,9.77
2022-09-20T13:29:50.567Z,8.93
2022-09-20T13:32:30.446Z,9.70
2022-09-20T13:35:14.867Z,9.23
2022-09-20T13:37:53.476Z,12.48
2022-09-20T13:40:25.598Z,14.07
2022-09-20T13:43:21.959Z,17.75
2022-09-20T13:45:53.378Z,25.23
2022-09-20T13:48:26.725Z,27.83
2022-09-20T13:50:57.526Z,33.38
2022-09-20T13:53:41.240Z,29.45
2022-09-20T13:56:14.455Z,21.85
2022-09-20T13:58:44.671Z,20.38
2022-09-20T14:01:41.928Z,16.15
2022-09-20T14:04:18.758Z,14.45
2022-09-20T14:06:49.254Z,14.35
2022-09-20T14:09:24.005Z,12.73
2022-09-20T14:11:55.201Z,11.85
2022-09-20T14:14:25.963Z,10.70
2022-09-20T14:16:57.655Z,11.38
2022-09-20T14:19:32.500Z,10.20
2022-09-20T14:22:06.821Z,10.23
2022-09-20T14:24:38.447Z,8.68
2022-09-20T14:27:09.958Z,10.35
2022-09-20T14:29:41.384Z,10.00
2022-09-20T14:32:12.015Z,9.45
2022-09-20T14:34:42.342Z,9.43
2022-09-20T14:37:14.874Z,10.05
2022-09-20T14:39:51.849Z,10.90
2022-09-20T14:42:23.570Z,10.05
2022-09-20T14:44:54.435Z,9.68
2022-09-20T14:47:28.696Z,10.07
2022-09-20T14:50:00.082Z,10.70
2022-09-20T14:52:31.814Z,11.30
2022-09-20T14:55:02.207Z,9.15
2022-09-20T14:57:33.446Z,9.60
2022-09-20T15:00:07.680Z,8.30
2022-09-20T15:02:38.365Z,8.95
2022-09-20T15:05:08.792Z,7.70
2022-09-20T15:07:39.243Z,8.30
2022-09-20T15:10:14.042Z,7.45
2022-09-20T15:12:44.374Z,7.78
2022-09-20T15:15:16.144Z,7.00
2022-09-20T15:17:48.349Z,6.70
2022-09-20T15:20:24.596Z,6.00
2022-09-20T15:22:55.029Z,6.70
2022-09-20T15:25:29.733Z,7.05
2022-09-20T15:28:00.865Z,6.15
2022-09-20T15:30:31.649Z,5.93
2022-09-20T15:33:03.152Z,6.38
2022-09-20T15:35:33.515Z,5.70
2022-09-20T15:38:05.667Z,5.78
2022-09-20T15:40:36.199Z,6.13
2022-09-20T15:43:06.826Z,5.75
2022-09-20T15:45:37.333Z,4.88
2022-09-20T15:48:07.988Z,5.13
2022-09-20T15:50:38.329Z,4.13
2022-09-20T15:53:08.443Z,5.15
2022-09-20T15:55:41.231Z,4.07
2022-09-20T15:58:11.878Z,4.72
2022-09-20T16:00:43.666Z,3.40
2022-09-20T16:03:18.164Z,4.03
2022-09-20T16:05:51.139Z,4.70
2022-09-20T16:08:21.721Z,4.28
2022-09-20T16:10:58.295Z,4.53
2022-09-20T16:13:28.535Z,5.78
2022-09-20T16:15:59.194Z,5.53
2022-09-20T16:18:48.203Z,4.07
2022-09-20T16:21:19.147Z,4.38
2022-09-20T16:23:53.398Z,4.65
2022-09-20T16:26:24.979Z,4.38
2022-09-20T16:28:57.083Z,4.32
2022-09-20T16:31:27.679Z,3.75
2022-09-20T16:33:57.799Z,3.38
2022-09-20T16:36:27.893Z,3.25
2022-09-20T16:38:58.466Z,3.40
2022-09-20T16:41:29.682Z,3.00
2022-09-20T16:43:59.738Z,2.72
2022-09-20T16:46:29.996Z,4.22
2022-09-20T16:49:02.186Z,3.92
2022-09-20T16:51:33.519Z,3.50
2022-09-20T16:54:04.411Z,3.53
2022-09-20T16:56:35.280Z,3.65
2022-09-20T16:59:05.860Z,2.90
2022-09-20T17:01:37.835Z,2.85
2022-09-20T17:04:08.355Z,3.40
2022-09-20T17:06:39.009Z,2.38
2022-09-20T17:09:09.422Z,2.97
2022-09-20T17:11:40.277Z,3.00
2022-09-20T17:14:10.915Z,3.70
2022-09-20T17:16:41.798Z,2.95
2022-09-20T17:19:12.958Z,2.97
2022-09-20T17:21:44.887Z,3.45
2022-09-20T17:24:15.434Z,2.90
2022-09-20T17:26:46.614Z,3.00
2022-09-20T17:29:18.278Z,2.92
2022-09-20T17:31:54.486Z,2.70
2022-09-20T17:34:26.559Z,2.15
2022-09-20T17:36:56.866Z,2.08
2022-09-20T17:39:26.958Z,1.50
2022-09-20T17:41:57.012Z,1.67
2022-09-20T17:44:27.002Z,2.80
2022-09-20T17:46:57.136Z,1.85
2022-09-20T17:49:28.879Z,1.30
2022-09-20T17:51:59.031Z,4.63
2022-09-20T17:54:28.972Z,1.92
2022-09-20T17:56:59.011Z,2.00
2022-09-20T17:59:29.391Z,1.38
2022-09-20T18:01:59.395Z,1.95
2022-09-20T18:04:29.416Z,2.08
2022-09-20T18:06:59.536Z,1.25
2022-09-20T18:09:29.586Z,1.40
2022-09-20T18:11:59.591Z,1.65
2022-09-20T18:14:31.287Z,1.55
2022-09-20T18:17:02.359Z,1.60
2022-09-20T18:19:35.746Z,1.75
2022-09-20T18:22:06.302Z,1.95
2022-09-20T18:24:36.301Z,1.40
2022-09-20T18:27:06.414Z,1.10
2022-09-20T18:29:38.308Z,1.33
2022-09-20T18:32:10.017Z,1.17
2022-09-20T18:34:40.760Z,1.58
2022-09-20T18:37:14.616Z,1.02
2022-09-20T18:39:45.402Z,1.70
2022-09-20T18:42:15.484Z,2.47
2022-09-20T18:44:47.192Z,2.10
2022-09-20T18:47:17.258Z,1.70
2022-09-20T18:49:48.090Z,2.05
2022-09-20T18:52:25.753Z,1.60
2022-09-20T18:54:58.146Z,2.00
2022-09-20T18:57:28.341Z,2.30
2022-09-20T19:00:03.444Z,1.30
2022-09-20T19:03:10.123Z,1.65
2022-09-20T19:05:41.161Z,1.40
2022-09-20T19:08:35.412Z,1.25
2022-09-20T19:11:06.741Z,2.83
2022-09-20T19:13:37.072Z,1.73
2022-09-20T19:16:07.086Z,1.65
2022-09-20T19:18:48.896Z,1.83
2022-09-20T19:21:31.288Z,2.15
2022-09-20T19:24:04.413Z,3.00
2022-09-20T19:26:39.158Z,2.50
2022-09-20T19:29:22.360Z,2.83
2022-09-20T19:31:53.111Z,2.63
2022-09-20T19:34:24.217Z,2.40
2022-09-20T19:36:57.074Z,2.35
2022-09-20T19:39:45.580Z,1.95
2022-09-20T19:42:34.664Z,2.78
2022-09-20T19:45:05.396Z,2.60
2022-09-20T19:47:49.570Z,2.38
2022-09-20T19:50:19.541Z,3.03
2022-09-20T19:52:49.909Z,2.55
2022-09-20T19:55:20.162Z,1.83
2022-09-20T19:57:50.393Z,1.35
2022-09-20T20:00:21.275Z,2.25
2022-09-20T20:02:51.433Z,1.20
2022-09-20T20:05:28.820Z,2.13
2022-09-20T20:08:05.690Z,2.13
2022-09-20T20:10:50.973Z,1.25
2022-09-20T20:13:39.771Z,3.42
2022-09-20T20:16:18.025Z,1.85
2022-09-20T20:18:58.106Z,2.10
2022-09-20T20:21:46.578Z,2.13
2022-09-20T20:24:36.566Z,2.08
2022-09-20T20:27:06.599Z,1.95
2022-09-20T20:29:36.584Z,1.40
2022-09-20T20:32:06.701Z,1.48
2022-09-20T20:34:38.111Z,1.95
2022-09-20T20:37:08.300Z,1.67
2022-09-20T20:39:38.312Z,1.45
2022-09-20T20:42:09.592Z,1.52
2022-09-20T20:44:39.644Z,1.20
2022-09-20T20:47:09.756Z,0.88
2022-09-20T20:49:39.992Z,0.90
2022-09-20T20:52:10.155Z,0.40
2022-09-20T20:54:40.127Z,0.32
2022-09-20T20:57:10.180Z,0.57
2022-09-20T20:59:40.229Z,0.38
2022-09-20T21:02:10.906Z,0.63
2022-09-20T21:04:41.881Z,0.70
2022-09-20T21:07:12.059Z,0.40
2022-09-20T21:09:42.082Z,0.35
2022-09-20T21:12:12.198Z,0.55
2022-09-20T21:14:42.179Z,0.60
2022-09-20T21:17:19.393Z,0.50
2022-09-20T21:19:49.615Z,0.52
2022-09-20T21:22:19.638Z,0.85
2022-09-20T21:24:49.834Z,0.40
2022-09-20T21:27:22.095Z,0.68
2022-09-20T21:29:52.635Z,0.47
2022-09-20T21:32:22.861Z,0.60
2022-09-20T21:34:52.974Z,0.30
2022-09-20T21:37:23.244Z,0.43
2022-09-20T21:39:56.647Z,0.45
2022-09-20T21:42:29.651Z,0.38
2022-09-20T21:44:59.714Z,0.10
2022-09-20T21:47:29.775Z,0.30
2022-09-20T21:49:59.752Z,0.20
2022-09-20T21:52:29.810Z,0.20
2022-09-20T21:54:59.957Z,0.20
2022-09-20T21:57:29.995Z,0.20
2022-09-20T21:59:59.952Z,0.25
2022-09-20T22:02:30.786Z,0.20
2022-09-20T22:05:00.961Z,0.20
2022-09-20T22:07:31.718Z,1.00
2022-09-20T22:10:01.750Z,0.30
2022-09-20T22:12:31.840Z,0.10
2022-09-20T22:15:01.895Z,0.17
2022-09-20T22:17:31.928Z,0.30
2022-09-20T22:20:01.941Z,0.20
2022-09-20T22:22:31.896Z,0.20
2022-09-20T22:25:01.999Z,0.10
2022-09-20T22:27:32.074Z,0.20
2022-09-20T22:30:04.935Z,0.20
2022-09-20T22:32:35.314Z,0.52
2022-09-20T22:35:05.487Z,0.35
2022-09-20T22:37:35.467Z,0.30
2022-09-20T22:40:05.594Z,0.50
2022-09-20T22:42:35.787Z,0.30
2022-09-20T22:45:05.950Z,0.30
2022-09-20T22:47:35.897Z,0.30
2022-09-20T22:50:06.723Z,0.75
2022-09-20T22:52:36.791Z,0.38
2022-09-20T22:55:06.966Z,1.50
2022-09-20T22:57:36.990Z,0.80
2022-09-20T23:00:07.155Z,1.15
2022-09-20T23:02:37.176Z,0.70
2022-09-20T23:05:07.994Z,0.60
2022-09-20T23:07:38.089Z,0.80
2022-09-20T23:10:08.488Z,1.98
2022-09-20T23:12:38.550Z,1.30
2022-09-20T23:15:09.350Z,1.38
2022-09-20T23:17:39.536Z,0.95
2022-09-20T23:20:10.319Z,1.10
2022-09-20T23:22:40.608Z,0.80
2022-09-20T23:25:10.846Z,1.38
2022-09-20T23:27:40.825Z,0.70
2022-09-20T23:30:11.101Z,1.20
2022-09-20T23:32:41.528Z,1.60
2022-09-20T23:35:11.549Z,1.45
2022-09-20T23:37:41.598Z,1.27
2022-09-20T23:40:11.984Z,0.57
2022-09-20T23:42:42.000Z,0.60
2022-09-20T23:45:12.888Z,1.25
2022-09-20T23:47:42.947Z,0.88
2022-09-20T23:50:13.316Z,1.00
2022-09-20T23:52:43.335Z,0.82
2022-09-20T23:55:13.374Z,1.00
2022-09-20T23:57:45.059Z,0.70
